sensor_id;sensor_type;location;lat;lon;timestamp;pressure;altitude;pressure_sealevel;temperature;humidity
55801;BME280;41730;51.960;20.158;2023-03-15T00:01:49;98640.50;;;8.49;67.38
55801;BME280;41730;51.960;20.158;2023-03-15T00:04:20;98635.30;;;8.22;67.54
55801;BME280;41730;51.960;20.158;2023-03-15T00:06:54;98641.89;;;8.06;67.27
55801;BME280;41730;51.960;20.158;2023-03-15T00:09:25;98652.11;;;7.80;67.40
55801;BME280;41730;51.960;20.158;2023-03-15T00:11:59;98676.20;;;7.69;67.33
55801;BME280;41730;51.960;20.158;2023-03-15T00:14:30;98687.88;;;7.51;67.80
55801;BME280;41730;51.960;20.158;2023-03-15T00:17:02;98706.23;;;7.33;68.00
55801;BME280;41730;51.960;20.158;2023-03-15T00:19:33;98719.81;;;7.16;68.01
55801;BME280;41730;51.960;20.158;2023-03-15T00:22:05;98732.94;;;7.07;68.37
55801;BME280;41730;51.960;20.158;2023-03-15T00:24:37;98731.80;;;7.00;68.24
55801;BME280;41730;51.960;20.158;2023-03-15T00:27:09;98745.19;;;6.85;68.24
55801;BME280;41730;51.960;20.158;2023-03-15T00:29:41;98754.98;;;6.71;68.63
55801;BME280;41730;51.960;20.158;2023-03-15T00:32:13;98754.08;;;6.57;68.72
55801;BME280;41730;51.960;20.158;2023-03-15T00:34:44;98754.53;;;6.45;69.03
55801;BME280;41730;51.960;20.158;2023-03-15T00:37:19;98765.57;;;6.50;68.81
55801;BME280;41730;51.960;20.158;2023-03-15T00:39:54;98777.24;;;6.50;68.64
55801;BME280;41730;51.960;20.158;2023-03-15T00:42:27;98780.50;;;6.42;68.64
55801;BME280;41730;51.960;20.158;2023-03-15T00:44:59;98802.90;;;6.33;68.59
55801;BME280;41730;51.960;20.158;2023-03-15T00:47:31;98810.31;;;6.42;68.60
55801;BME280;41730;51.960;20.158;2023-03-15T00:50:03;98813.94;;;6.38;68.38
55801;BME280;41730;51.960;20.158;2023-03-15T00:52:36;98826.55;;;6.23;68.61
55801;BME280;41730;51.960;20.158;2023-03-15T00:55:11;98844.06;;;6.16;68.81
55801;BME280;41730;51.960;20.158;2023-03-15T00:57:44;98853.06;;;6.10;68.81
55801;BME280;41730;51.960;20.158;2023-03-15T01:00:18;98867.48;;;5.98;68.90
55801;BME280;41730;51.960;20.158;2023-03-15T01:02:56;98880.20;;;5.88;69.34
55801;BME280;41730;51.960;20.158;2023-03-15T01:05:27;98878.79;;;5.96;68.95
55801;BME280;41730;51.960;20.158;2023-03-15T01:08:00;98881.23;;;5.88;68.81
55801;BME280;41730;51.960;20.158;2023-03-15T01:10:33;98885.97;;;5.72;69.16
55801;BME280;41730;51.960;20.158;2023-03-15T01:13:04;98888.26;;;5.68;69.19
55801;BME280;41730;51.960;20.158;2023-03-15T01:15:36;98903.36;;;5.64;69.29
55801;BME280;41730;51.960;20.158;2023-03-15T01:18:08;98911.10;;;5.69;69.38
55801;BME280;41730;51.960;20.158;2023-03-15T01:20:43;98915.77;;;5.76;69.18
55801;BME280;41730;51.960;20.158;2023-03-15T01:23:15;98925.40;;;5.67;68.98
55801;BME280;41730;51.960;20.158;2023-03-15T01:25:46;98939.98;;;5.67;68.98
55801;BME280;41730;51.960;20.158;2023-03-15T01:28:18;98949.12;;;5.72;68.73
55801;BME280;41730;51.960;20.158;2023-03-15T01:30:53;98966.02;;;5.68;68.81
55801;BME280;41730;51.960;20.158;2023-03-15T01:33:27;98979.30;;;5.59;69.08
55801;BME280;41730;51.960;20.158;2023-03-15T01:36:04;98978.23;;;5.57;68.99
55801;BME280;41730;51.960;20.158;2023-03-15T01:38:36;98975.07;;;5.72;68.54
55801;BME280;41730;51.960;20.158;2023-03-15T01:41:08;98984.70;;;5.69;68.31
55801;BME280;41730;51.960;20.158;2023-03-15T01:43:40;98993.25;;;5.48;68.64
55801;BME280;41730;51.960;20.158;2023-03-15T01:46:27;98988.58;;;5.41;68.87
55801;BME280;41730;51.960;20.158;2023-03-15T01:49:07;98985.11;;;5.43;68.84
55801;BME280;41730;51.960;20.158;2023-03-15T01:51:43;98999.68;;;5.50;68.69
55801;BME280;41730;51.960;20.158;2023-03-15T01:54:20;99009.23;;;5.61;68.01
55801;BME280;41730;51.960;20.158;2023-03-15T01:56:56;99015.45;;;5.52;68.29
55801;BME280;41730;51.960;20.158;2023-03-15T01:59:32;99021.94;;;5.39;68.75
55801;BME280;41730;51.960;20.158;2023-03-15T02:02:06;99038.75;;;5.35;68.69
55801;BME280;41730;51.960;20.158;2023-03-15T02:04:41;99037.17;;;5.32;68.77
55801;BME280;41730;51.960;20.158;2023-03-15T02:07:17;99038.15;;;5.31;68.55
55801;BME280;41730;51.960;20.158;2023-03-15T02:09:56;99040.95;;;5.24;68.42
55801;BME280;41730;51.960;20.158;2023-03-15T02:12:32;99050.34;;;5.33;68.38
55801;BME280;41730;51.960;20.158;2023-03-15T02:15:07;99057.57;;;5.41;68.12
55801;BME280;41730;51.960;20.158;2023-03-15T02:17:42;99068.08;;;5.35;68.47
55801;BME280;41730;51.960;20.158;2023-03-15T02:20:20;99087.21;;;5.26;68.73
55801;BME280;41730;51.960;20.158;2023-03-15T02:22:57;99096.82;;;5.13;69.13
55801;BME280;41730;51.960;20.158;2023-03-15T02:25:37;99103.32;;;5.23;68.71
55801;BME280;41730;51.960;20.158;2023-03-15T02:28:15;99114.55;;;5.21;68.90
55801;BME280;41730;51.960;20.158;2023-03-15T02:30:49;99121.11;;;5.24;68.90
55801;BME280;41730;51.960;20.158;2023-03-15T02:33:24;99122.13;;;5.22;68.81
55801;BME280;41730;51.960;20.158;2023-03-15T02:36:04;99130.09;;;5.20;68.84
55801;BME280;41730;51.960;20.158;2023-03-15T02:38:37;99133.64;;;5.21;68.79
55801;BME280;41730;51.960;20.158;2023-03-15T02:41:09;99152.68;;;5.11;68.99
55801;BME280;41730;51.960;20.158;2023-03-15T02:43:41;99165.08;;;5.10;69.21
55801;BME280;41730;51.960;20.158;2023-03-15T02:46:13;99177.13;;;5.03;69.14
55801;BME280;41730;51.960;20.158;2023-03-15T02:48:45;99181.45;;;4.96;69.51
55801;BME280;41730;51.960;20.158;2023-03-15T02:51:23;99182.67;;;4.96;69.52
55801;BME280;41730;51.960;20.158;2023-03-15T02:53:55;99179.69;;;4.92;69.60
55801;BME280;41730;51.960;20.158;2023-03-15T02:56:26;99179.31;;;5.01;69.50
55801;BME280;41730;51.960;20.158;2023-03-15T02:58:58;99188.75;;;5.05;69.12
55801;BME280;41730;51.960;20.158;2023-03-15T03:01:29;99192.23;;;4.94;69.43
55801;BME280;41730;51.960;20.158;2023-03-15T03:04:02;99202.48;;;4.94;69.35
55801;BME280;41730;51.960;20.158;2023-03-15T03:06:33;99195.07;;;4.97;69.18
55801;BME280;41730;51.960;20.158;2023-03-15T03:09:05;99198.96;;;5.01;69.01
55801;BME280;41730;51.960;20.158;2023-03-15T03:11:37;99193.52;;;5.00;69.03
55801;BME280;41730;51.960;20.158;2023-03-15T03:14:09;99205.08;;;4.94;68.87
55801;BME280;41730;51.960;20.158;2023-03-15T03:16:43;99211.16;;;4.91;68.86
55801;BME280;41730;51.960;20.158;2023-03-15T03:19:14;99219.65;;;4.85;68.89
55801;BME280;41730;51.960;20.158;2023-03-15T03:21:46;99224.88;;;4.75;69.26
55801;BME280;41730;51.960;20.158;2023-03-15T03:24:18;99235.74;;;4.92;69.01
55801;BME280;41730;51.960;20.158;2023-03-15T03:26:50;99229.52;;;4.99;68.55
55801;BME280;41730;51.960;20.158;2023-03-15T03:29:27;99231.02;;;4.93;68.58
55801;BME280;41730;51.960;20.158;2023-03-15T03:31:58;99228.01;;;4.82;68.74
55801;BME280;41730;51.960;20.158;2023-03-15T03:34:30;99224.40;;;4.75;69.16
55801;BME280;41730;51.960;20.158;2023-03-15T03:37:02;99221.87;;;4.76;68.97
55801;BME280;41730;51.960;20.158;2023-03-15T03:39:33;99220.09;;;4.77;68.84
55801;BME280;41730;51.960;20.158;2023-03-15T03:42:06;99234.39;;;4.75;68.69
55801;BME280;41730;51.960;20.158;2023-03-15T03:44:37;99243.58;;;4.80;68.75
55801;BME280;41730;51.960;20.158;2023-03-15T03:47:09;99249.75;;;4.93;68.09
55801;BME280;41730;51.960;20.158;2023-03-15T03:49:41;99257.62;;;4.90;68.06
55801;BME280;41730;51.960;20.158;2023-03-15T03:52:13;99256.39;;;4.83;68.39
55801;BME280;41730;51.960;20.158;2023-03-15T03:54:44;99260.21;;;4.88;67.97
55801;BME280;41730;51.960;20.158;2023-03-15T03:57:16;99264.69;;;4.84;67.97
55801;BME280;41730;51.960;20.158;2023-03-15T03:59:47;99272.41;;;4.76;68.22
55801;BME280;41730;51.960;20.158;2023-03-15T04:02:19;99282.48;;;4.76;68.18
55801;BME280;41730;51.960;20.158;2023-03-15T04:04:51;99293.13;;;4.70;68.18
55801;BME280;41730;51.960;20.158;2023-03-15T04:07:23;99295.52;;;4.69;68.20
55801;BME280;41730;51.960;20.158;2023-03-15T04:09:55;99296.86;;;4.74;67.89
55801;BME280;41730;51.960;20.158;2023-03-15T04:12:26;99300.13;;;4.72;67.91
55801;BME280;41730;51.960;20.158;2023-03-15T04:14:58;99310.23;;;4.72;67.95
55801;BME280;41730;51.960;20.158;2023-03-15T04:17:29;99320.13;;;4.83;67.55
55801;BME280;41730;51.960;20.158;2023-03-15T04:20:01;99327.51;;;4.84;67.49
55801;BME280;41730;51.960;20.158;2023-03-15T04:22:35;99326.45;;;4.87;67.17
55801;BME280;41730;51.960;20.158;2023-03-15T04:25:08;99327.74;;;4.91;67.33
55801;BME280;41730;51.960;20.158;2023-03-15T04:35:15;99349.71;;;5.02;66.27
55801;BME280;41730;51.960;20.158;2023-03-15T04:37:47;99354.40;;;5.02;65.95
55801;BME280;41730;51.960;20.158;2023-03-15T04:40:20;99355.20;;;4.83;66.43
55801;BME280;41730;51.960;20.158;2023-03-15T04:42:53;99358.85;;;4.64;66.75
55801;BME280;41730;51.960;20.158;2023-03-15T04:45:26;99349.25;;;4.48;66.95
55801;BME280;41730;51.960;20.158;2023-03-15T04:47:59;99358.61;;;4.43;67.24
55801;BME280;41730;51.960;20.158;2023-03-15T04:50:31;99367.63;;;4.45;67.26
55801;BME280;41730;51.960;20.158;2023-03-15T04:53:03;99369.38;;;4.51;67.09
55801;BME280;41730;51.960;20.158;2023-03-15T04:55:35;99372.10;;;4.44;67.28
55801;BME280;41730;51.960;20.158;2023-03-15T04:58:07;99376.55;;;4.42;67.47
55801;BME280;41730;51.960;20.158;2023-03-15T05:00:40;99374.02;;;4.43;67.63
55801;BME280;41730;51.960;20.158;2023-03-15T05:03:13;99367.21;;;4.42;67.57
55801;BME280;41730;51.960;20.158;2023-03-15T05:05:45;99374.35;;;4.54;67.34
55801;BME280;41730;51.960;20.158;2023-03-15T05:08:17;99378.09;;;4.55;67.23
55801;BME280;41730;51.960;20.158;2023-03-15T05:10:48;99384.90;;;4.47;67.47
55801;BME280;41730;51.960;20.158;2023-03-15T05:13:20;99395.76;;;4.38;67.68
55801;BME280;41730;51.960;20.158;2023-03-15T05:15:52;99394.97;;;4.42;67.88
55801;BME280;41730;51.960;20.158;2023-03-15T05:18:24;99399.99;;;4.44;67.71
55801;BME280;41730;51.960;20.158;2023-03-15T05:20:56;99399.59;;;4.45;67.56
55801;BME280;41730;51.960;20.158;2023-03-15T05:23:27;99397.80;;;4.39;67.69
55801;BME280;41730;51.960;20.158;2023-03-15T05:25:59;99409.02;;;4.37;67.82
55801;BME280;41730;51.960;20.158;2023-03-15T05:28:31;99411.97;;;4.30;67.88
55801;BME280;41730;51.960;20.158;2023-03-15T05:31:02;99423.52;;;4.28;67.98
55801;BME280;41730;51.960;20.158;2023-03-15T05:33:34;99431.17;;;4.23;68.26
55801;BME280;41730;51.960;20.158;2023-03-15T05:36:06;99433.75;;;4.23;68.24
55801;BME280;41730;51.960;20.158;2023-03-15T05:38:38;99436.39;;;4.23;68.30
55801;BME280;41730;51.960;20.158;2023-03-15T05:41:14;99444.70;;;4.28;68.31
55801;BME280;41730;51.960;20.158;2023-03-15T05:43:47;99441.67;;;4.34;67.85
55801;BME280;41730;51.960;20.158;2023-03-15T05:46:18;99445.98;;;4.32;68.04
55801;BME280;41730;51.960;20.158;2023-03-15T05:48:51;99454.98;;;4.27;68.19
55801;BME280;41730;51.960;20.158;2023-03-15T05:51:23;99454.23;;;4.23;68.45
55801;BME280;41730;51.960;20.158;2023-03-15T05:53:55;99448.51;;;4.26;68.34
55801;BME280;41730;51.960;20.158;2023-03-15T05:56:28;99451.81;;;4.21;68.40
55801;BME280;41730;51.960;20.158;2023-03-15T05:58:59;99452.93;;;4.17;68.62
55801;BME280;41730;51.960;20.158;2023-03-15T06:01:33;99455.58;;;4.14;68.75
55801;BME280;41730;51.960;20.158;2023-03-15T06:04:05;99464.41;;;4.19;68.57
55801;BME280;41730;51.960;20.158;2023-03-15T06:06:37;99466.31;;;4.29;68.38
55801;BME280;41730;51.960;20.158;2023-03-15T06:09:08;99473.42;;;4.32;68.10
55801;BME280;41730;51.960;20.158;2023-03-15T06:11:40;99476.95;;;4.28;68.21
55801;BME280;41730;51.960;20.158;2023-03-15T06:14:12;99484.25;;;4.28;68.19
55801;BME280;41730;51.960;20.158;2023-03-15T06:16:43;99487.52;;;4.29;68.11
55801;BME280;41730;51.960;20.158;2023-03-15T06:19:15;99489.92;;;4.29;68.01
55801;BME280;41730;51.960;20.158;2023-03-15T06:21:47;99496.56;;;4.21;68.09
55801;BME280;41730;51.960;20.158;2023-03-15T06:24:19;99495.37;;;4.10;68.58
55801;BME280;41730;51.960;20.158;2023-03-15T06:26:51;99510.15;;;4.12;68.51
55801;BME280;41730;51.960;20.158;2023-03-15T06:29:23;99522.91;;;4.21;68.28
55801;BME280;41730;51.960;20.158;2023-03-15T06:31:57;99521.92;;;4.20;68.27
55801;BME280;41730;51.960;20.158;2023-03-15T06:34:28;99524.10;;;4.24;68.04
55801;BME280;41730;51.960;20.158;2023-03-15T06:37:00;99520.91;;;4.27;67.89
55801;BME280;41730;51.960;20.158;2023-03-15T06:39:32;99524.27;;;4.19;67.88
55801;BME280;41730;51.960;20.158;2023-03-15T06:42:08;99529.70;;;4.10;68.01
55801;BME280;41730;51.960;20.158;2023-03-15T06:44:43;99535.86;;;4.14;68.05
55801;BME280;41730;51.960;20.158;2023-03-15T06:47:14;99541.11;;;4.19;67.80
55801;BME280;41730;51.960;20.158;2023-03-15T06:49:46;99545.77;;;4.19;67.68
55801;BME280;41730;51.960;20.158;2023-03-15T06:52:20;99545.45;;;4.21;67.53
55801;BME280;41730;51.960;20.158;2023-03-15T06:54:53;99548.70;;;4.30;67.34
55801;BME280;41730;51.960;20.158;2023-03-15T06:57:24;99551.09;;;4.28;67.11
55801;BME280;41730;51.960;20.158;2023-03-15T06:59:56;99554.41;;;4.22;67.20
55801;BME280;41730;51.960;20.158;2023-03-15T07:02:28;99567.31;;;4.29;67.21
55801;BME280;41730;51.960;20.158;2023-03-15T07:05:07;99566.86;;;4.43;66.98
55801;BME280;41730;51.960;20.158;2023-03-15T07:07:39;99576.41;;;4.48;66.66
55801;BME280;41730;51.960;20.158;2023-03-15T07:10:12;99577.09;;;4.52;66.73
55801;BME280;41730;51.960;20.158;2023-03-15T07:12:43;99575.36;;;4.57;66.57
55801;BME280;41730;51.960;20.158;2023-03-15T07:15:15;99572.86;;;4.75;66.24
55801;BME280;41730;51.960;20.158;2023-03-15T07:17:47;99575.85;;;4.75;66.07
55801;BME280;41730;51.960;20.158;2023-03-15T07:20:19;99582.61;;;4.70;65.98
55801;BME280;41730;51.960;20.158;2023-03-15T07:22:50;99587.48;;;4.65;66.27
55801;BME280;41730;51.960;20.158;2023-03-15T07:25:22;99588.09;;;4.71;66.42
55801;BME280;41730;51.960;20.158;2023-03-15T07:27:55;99588.56;;;4.77;66.32
55801;BME280;41730;51.960;20.158;2023-03-15T07:30:26;99595.79;;;4.73;66.16
55801;BME280;41730;51.960;20.158;2023-03-15T07:32:58;99605.52;;;4.68;66.02
55801;BME280;41730;51.960;20.158;2023-03-15T07:35:30;99610.51;;;4.76;65.94
55801;BME280;41730;51.960;20.158;2023-03-15T07:38:02;99617.05;;;4.74;65.70
55801;BME280;41730;51.960;20.158;2023-03-15T07:40:33;99620.80;;;4.75;65.50
55801;BME280;41730;51.960;20.158;2023-03-15T07:43:04;99627.70;;;4.73;65.63
55801;BME280;41730;51.960;20.158;2023-03-15T07:45:36;99631.23;;;4.70;65.63
55801;BME280;41730;51.960;20.158;2023-03-15T07:48:08;99639.34;;;4.78;65.57
55801;BME280;41730;51.960;20.158;2023-03-15T07:50:40;99645.33;;;4.69;66.01
55801;BME280;41730;51.960;20.158;2023-03-15T07:53:12;99657.46;;;4.72;65.79
55801;BME280;41730;51.960;20.158;2023-03-15T07:55:44;99669.70;;;4.76;65.88
55801;BME280;41730;51.960;20.158;2023-03-15T07:58:17;99683.35;;;4.90;65.61
55801;BME280;41730;51.960;20.158;2023-03-15T08:00:49;99689.90;;;4.91;65.72
55801;BME280;41730;51.960;20.158;2023-03-15T08:03:21;99698.60;;;5.06;65.33
55801;BME280;41730;51.960;20.158;2023-03-15T08:05:53;99701.60;;;5.11;65.04
55801;BME280;41730;51.960;20.158;2023-03-15T08:08:25;99707.88;;;5.05;64.72
55801;BME280;41730;51.960;20.158;2023-03-15T08:10:57;99714.48;;;5.00;64.92
55801;BME280;41730;51.960;20.158;2023-03-15T08:13:29;99722.86;;;5.00;65.05
55801;BME280;41730;51.960;20.158;2023-03-15T08:16:01;99727.40;;;5.04;64.85
55801;BME280;41730;51.960;20.158;2023-03-15T08:18:33;99732.95;;;5.12;64.53
55801;BME280;41730;51.960;20.158;2023-03-15T08:21:06;99735.48;;;5.18;64.28
55801;BME280;41730;51.960;20.158;2023-03-15T08:23:39;99732.49;;;5.24;63.63
55801;BME280;41730;51.960;20.158;2023-03-15T08:26:10;99735.89;;;5.20;63.48
55801;BME280;41730;51.960;20.158;2023-03-15T08:28:45;99737.54;;;5.14;63.79
55801;BME280;41730;51.960;20.158;2023-03-15T08:31:20;99743.62;;;5.11;63.57
55801;BME280;41730;51.960;20.158;2023-03-15T08:33:52;99745.67;;;5.12;63.87
55801;BME280;41730;51.960;20.158;2023-03-15T08:36:24;99743.02;;;5.20;63.79
55801;BME280;41730;51.960;20.158;2023-03-15T08:38:56;99747.45;;;5.24;63.52
55801;BME280;41730;51.960;20.158;2023-03-15T08:41:28;99742.73;;;5.32;63.55
55801;BME280;41730;51.960;20.158;2023-03-15T08:44:00;99755.48;;;5.42;63.32
55801;BME280;41730;51.960;20.158;2023-03-15T08:46:32;99762.79;;;5.31;63.63
55801;BME280;41730;51.960;20.158;2023-03-15T08:49:04;99763.58;;;5.40;63.65
55801;BME280;41730;51.960;20.158;2023-03-15T08:51:37;99762.56;;;5.49;63.24
55801;BME280;41730;51.960;20.158;2023-03-15T08:54:09;99761.90;;;5.52;63.22
55801;BME280;41730;51.960;20.158;2023-03-15T08:56:43;99760.98;;;5.62;63.25
55801;BME280;41730;51.960;20.158;2023-03-15T08:59:14;99765.94;;;5.56;63.55
55801;BME280;41730;51.960;20.158;2023-03-15T09:02:00;99766.64;;;5.61;63.68
55801;BME280;41730;51.960;20.158;2023-03-15T09:04:35;99763.34;;;5.81;63.40
55801;BME280;41730;51.960;20.158;2023-03-15T09:07:07;99774.86;;;5.90;63.25
55801;BME280;41730;51.960;20.158;2023-03-15T09:09:39;99778.52;;;6.03;63.02
55801;BME280;41730;51.960;20.158;2023-03-15T09:12:11;99788.08;;;6.11;62.85
55801;BME280;41730;51.960;20.158;2023-03-15T09:14:43;99789.02;;;6.27;62.58
55801;BME280;41730;51.960;20.158;2023-03-15T09:17:37;99793.25;;;6.38;62.52
55801;BME280;41730;51.960;20.158;2023-03-15T09:20:11;99794.01;;;6.50;62.23
55801;BME280;41730;51.960;20.158;2023-03-15T09:22:51;99786.58;;;6.61;61.74
55801;BME280;41730;51.960;20.158;2023-03-15T09:25:24;99789.73;;;6.53;61.37
55801;BME280;41730;51.960;20.158;2023-03-15T09:27:56;99805.54;;;6.44;60.98
55801;BME280;41730;51.960;20.158;2023-03-15T09:30:28;99804.51;;;6.37;61.46
55801;BME280;41730;51.960;20.158;2023-03-15T09:33:00;99804.30;;;6.30;61.70
55801;BME280;41730;51.960;20.158;2023-03-15T09:35:32;99809.59;;;6.24;61.62
55801;BME280;41730;51.960;20.158;2023-03-15T09:38:04;99805.23;;;6.19;61.65
55801;BME280;41730;51.960;20.158;2023-03-15T09:40:40;99809.84;;;6.28;61.54
55801;BME280;41730;51.960;20.158;2023-03-15T09:43:37;99810.34;;;6.45;61.31
55801;BME280;41730;51.960;20.158;2023-03-15T09:46:24;99814.29;;;6.63;61.05
55801;BME280;41730;51.960;20.158;2023-03-15T09:49:02;99816.55;;;6.75;61.05
55801;BME280;41730;51.960;20.158;2023-03-15T09:51:40;99810.26;;;6.85;61.11
55801;BME280;41730;51.960;20.158;2023-03-15T09:54:19;99811.40;;;7.02;61.05
55801;BME280;41730;51.960;20.158;2023-03-15T09:56:57;99807.08;;;7.18;60.18
55801;BME280;41730;51.960;20.158;2023-03-15T09:59:33;99804.86;;;7.27;59.85
55801;BME280;41730;51.960;20.158;2023-03-15T10:02:18;99803.87;;;7.35;59.52
55801;BME280;41730;51.960;20.158;2023-03-15T10:04:56;99806.92;;;7.39;59.46
55801;BME280;41730;51.960;20.158;2023-03-15T10:07:35;99806.96;;;7.34;59.47
55801;BME280;41730;51.960;20.158;2023-03-15T10:10:16;99808.35;;;7.25;58.82
55801;BME280;41730;51.960;20.158;2023-03-15T10:12:56;99803.66;;;7.27;58.75
55801;BME280;41730;51.960;20.158;2023-03-15T10:15:40;99802.14;;;7.22;58.54
55801;BME280;41730;51.960;20.158;2023-03-15T10:18:26;99810.48;;;7.17;58.56
55801;BME280;41730;51.960;20.158;2023-03-15T10:21:09;99807.36;;;7.19;58.64
55801;BME280;41730;51.960;20.158;2023-03-15T10:23:47;99810.04;;;7.32;58.45
55801;BME280;41730;51.960;20.158;2023-03-15T10:26:23;99821.79;;;7.27;58.48
55801;BME280;41730;51.960;20.158;2023-03-15T10:28:56;99829.64;;;7.11;58.93
55801;BME280;41730;51.960;20.158;2023-03-15T10:31:33;99823.27;;;7.02;58.96
55801;BME280;41730;51.960;20.158;2023-03-15T10:34:14;99822.15;;;6.82;59.19
55801;BME280;41730;51.960;20.158;2023-03-15T10:36:50;99818.84;;;6.79;58.96
55801;BME280;41730;51.960;20.158;2023-03-15T10:39:25;99825.45;;;6.80;58.87
55801;BME280;41730;51.960;20.158;2023-03-15T10:42:05;99816.27;;;6.81;58.84
55801;BME280;41730;51.960;20.158;2023-03-15T10:48:20;99814.48;;;7.08;58.23
55801;BME280;41730;51.960;20.158;2023-03-15T10:51:22;99820.85;;;7.23;58.06
55801;BME280;41730;51.960;20.158;2023-03-15T10:54:05;99811.36;;;7.31;57.98
55801;BME280;41730;51.960;20.158;2023-03-15T10:56:45;99817.95;;;7.48;57.17
55801;BME280;41730;51.960;20.158;2023-03-15T10:59:20;99818.57;;;7.65;56.90
55801;BME280;41730;51.960;20.158;2023-03-15T11:02:06;99814.60;;;7.73;56.96
55801;BME280;41730;51.960;20.158;2023-03-15T11:04:49;99816.11;;;7.78;55.94
55801;BME280;41730;51.960;20.158;2023-03-15T11:07:22;99813.48;;;7.72;56.49
55801;BME280;41730;51.960;20.158;2023-03-15T11:10:03;99814.39;;;7.82;57.09
55801;BME280;41730;51.960;20.158;2023-03-15T11:12:35;99817.64;;;7.88;56.47
55801;BME280;41730;51.960;20.158;2023-03-15T11:15:12;99816.72;;;7.88;56.36
55801;BME280;41730;51.960;20.158;2023-03-15T11:17:45;99814.10;;;7.88;56.66
55801;BME280;41730;51.960;20.158;2023-03-15T11:20:28;99812.74;;;7.86;56.77
55801;BME280;41730;51.960;20.158;2023-03-15T11:23:01;99801.73;;;7.86;56.19
55801;BME280;41730;51.960;20.158;2023-03-15T11:25:36;99805.52;;;7.91;55.54
55801;BME280;41730;51.960;20.158;2023-03-15T11:28:15;99805.80;;;7.88;55.77
55801;BME280;41730;51.960;20.158;2023-03-15T11:30:49;99804.56;;;7.88;55.73
55801;BME280;41730;51.960;20.158;2023-03-15T11:33:35;99806.66;;;7.88;55.81
55801;BME280;41730;51.960;20.158;2023-03-15T11:36:15;99807.40;;;7.99;55.26
55801;BME280;41730;51.960;20.158;2023-03-15T11:38:48;99802.94;;;7.96;54.19
55801;BME280;41730;51.960;20.158;2023-03-15T11:41:28;99807.40;;;7.81;54.48
55801;BME280;41730;51.960;20.158;2023-03-15T11:44:12;99808.32;;;7.80;54.88
55801;BME280;41730;51.960;20.158;2023-03-15T11:46:51;99807.40;;;7.83;55.30
55801;BME280;41730;51.960;20.158;2023-03-15T11:49:32;99805.81;;;7.99;55.00
55801;BME280;41730;51.960;20.158;2023-03-15T11:52:06;99804.79;;;8.03;55.08
55801;BME280;41730;51.960;20.158;2023-03-15T11:54:38;99806.88;;;8.03;54.48
55801;BME280;41730;51.960;20.158;2023-03-15T11:57:37;99808.52;;;7.94;53.99
55801;BME280;41730;51.960;20.158;2023-03-15T12:03:30;99814.15;;;7.95;53.53
55801;BME280;41730;51.960;20.158;2023-03-15T12:06:08;99822.79;;;7.91;53.35
55801;BME280;41730;51.960;20.158;2023-03-15T12:08:46;99821.08;;;7.96;53.10
55801;BME280;41730;51.960;20.158;2023-03-15T12:11:39;99824.36;;;7.80;54.01
55801;BME280;41730;51.960;20.158;2023-03-15T12:14:31;99823.87;;;7.80;54.06
55801;BME280;41730;51.960;20.158;2023-03-15T12:17:37;99826.14;;;7.82;54.46
55801;BME280;41730;51.960;20.158;2023-03-15T12:20:19;99829.08;;;7.92;54.15
55801;BME280;41730;51.960;20.158;2023-03-15T12:22:53;99828.08;;;7.95;54.14
55801;BME280;41730;51.960;20.158;2023-03-15T12:25:37;99831.61;;;8.01;53.72
55801;BME280;41730;51.960;20.158;2023-03-15T12:28:27;99831.23;;;8.09;52.66
55801;BME280;41730;51.960;20.158;2023-03-15T12:31:03;99832.17;;;8.03;52.61
55801;BME280;41730;51.960;20.158;2023-03-15T12:33:47;99836.91;;;7.96;52.45
55801;BME280;41730;51.960;20.158;2023-03-15T12:36:33;99840.33;;;8.02;52.53
55801;BME280;41730;51.960;20.158;2023-03-15T12:39:28;99839.20;;;8.05;52.89
55801;BME280;41730;51.960;20.158;2023-03-15T12:42:10;99837.42;;;7.99;52.63
55801;BME280;41730;51.960;20.158;2023-03-15T12:44:43;99838.27;;;7.99;51.97
55801;BME280;41730;51.960;20.158;2023-03-15T12:47:15;99840.61;;;7.98;52.21
55801;BME280;41730;51.960;20.158;2023-03-15T12:49:47;99848.71;;;7.83;52.42
55801;BME280;41730;51.960;20.158;2023-03-15T12:52:39;99850.66;;;7.76;52.52
55801;BME280;41730;51.960;20.158;2023-03-15T12:55:15;99853.13;;;7.81;52.35
55801;BME280;41730;51.960;20.158;2023-03-15T12:57:49;99860.94;;;7.74;52.41
55801;BME280;41730;51.960;20.158;2023-03-15T13:00:26;99862.43;;;7.75;52.96
55801;BME280;41730;51.960;20.158;2023-03-15T13:03:05;99865.39;;;7.84;53.05
55801;BME280;41730;51.960;20.158;2023-03-15T13:05:49;99866.09;;;7.96;53.05
55801;BME280;41730;51.960;20.158;2023-03-15T13:08:37;99874.61;;;8.05;52.66
55801;BME280;41730;51.960;20.158;2023-03-15T13:11:18;99881.54;;;7.92;52.90
55801;BME280;41730;51.960;20.158;2023-03-15T13:14:06;99880.66;;;7.93;52.34
55801;BME280;41730;51.960;20.158;2023-03-15T13:16:45;99878.88;;;8.00;52.37
55801;BME280;41730;51.960;20.158;2023-03-15T13:19:22;99882.38;;;7.98;52.57
55801;BME280;41730;51.960;20.158;2023-03-15T13:22:04;99888.59;;;8.14;52.55
55801;BME280;41730;51.960;20.158;2023-03-15T13:24:50;99887.00;;;8.17;52.61
55801;BME280;41730;51.960;20.158;2023-03-15T13:27:32;99890.02;;;8.20;52.37
55801;BME280;41730;51.960;20.158;2023-03-15T13:30:25;99893.21;;;8.13;52.59
55801;BME280;41730;51.960;20.158;2023-03-15T13:33:09;99895.63;;;8.04;52.79
55801;BME280;41730;51.960;20.158;2023-03-15T13:35:46;99899.40;;;8.14;52.40
55801;BME280;41730;51.960;20.158;2023-03-15T13:38:26;99900.42;;;8.03;51.93
55801;BME280;41730;51.960;20.158;2023-03-15T13:41:00;99908.91;;;8.02;51.56
55801;BME280;41730;51.960;20.158;2023-03-15T13:43:34;99909.58;;;7.96;51.43
55801;BME280;41730;51.960;20.158;2023-03-15T13:46:06;99909.77;;;7.81;51.42
55801;BME280;41730;51.960;20.158;2023-03-15T13:55:23;99929.70;;;8.20;50.78
55801;BME280;41730;51.960;20.158;2023-03-15T13:58:06;99930.66;;;8.08;51.16
55801;BME280;41730;51.960;20.158;2023-03-15T14:00:41;99925.84;;;8.02;51.34
55801;BME280;41730;51.960;20.158;2023-03-15T14:03:19;99924.52;;;8.10;51.82